sensor_id;sensor_type;location;lat;lon;timestamp;temperature;humidity
44447;DHT22;30152;52.066;5.358;2022-10-16T07:04:45;13.20;99.90
44447;DHT22;30152;52.066;5.358;2022-10-16T07:16:55;12.80;99.90
44447;DHT22;30152;52.066;5.358;2022-10-16T07:24:15;12.90;99.90
44447;DHT22;30152;52.066;5.358;2022-10-16T07:26:42;12.90;99.90
44447;DHT22;30152;52.066;5.358;2022-10-16T07:29:27;13.10;99.90
44447;DHT22;30152;52.066;5.358;2022-10-16T07:34:21;13.00;99.90
44447;DHT22;30152;52.066;5.358;2022-10-16T07:36:50;13.00;99.90
44447;DHT22;30152;52.066;5.358;2022-10-16T07:39:17;13.20;99.90
44447;DHT22;30152;52.066;5.358;2022-10-16T07:41:42;13.30;99.90
44447;DHT22;30152;52.066;5.358;2022-10-16T07:44:08;13.20;99.90
44447;DHT22;30152;52.066;5.358;2022-10-16T07:56:20;13.20;99.90
44447;DHT22;30152;52.066;5.358;2022-10-16T07:58:48;13.40;99.90
44447;DHT22;30152;52.066;5.358;2022-10-16T08:01:16;13.50;99.90
44447;DHT22;30152;52.066;5.358;2022-10-16T08:03:43;13.50;99.90
44447;DHT22;30152;52.066;5.358;2022-10-16T08:13:29;13.90;99.90
44447;DHT22;30152;52.066;5.358;2022-10-16T08:15:55;14.00;99.90
44447;DHT22;30152;52.066;5.358;2022-10-16T08:18:20;13.90;99.90
44447;DHT22;30152;52.066;5.358;2022-10-16T08:23:12;14.30;99.90
44447;DHT22;30152;52.066;5.358;2022-10-16T08:25:40;14.00;99.90
44447;DHT22;30152;52.066;5.358;2022-10-16T08:28:07;14.00;99.90
44447;DHT22;30152;52.066;5.358;2022-10-16T08:30:34;14.10;99.90
44447;DHT22;30152;52.066;5.358;2022-10-16T08:32:59;14.10;99.90
44447;DHT22;30152;52.066;5.358;2022-10-16T08:40:28;14.30;99.90
44447;DHT22;30152;52.066;5.358;2022-10-16T08:46:05;14.50;99.90
44447;DHT22;30152;52.066;5.358;2022-10-16T08:48:49;14.40;99.90
44447;DHT22;30152;52.066;5.358;2022-10-16T08:51:21;14.50;99.90
44447;DHT22;30152;52.066;5.358;2022-10-16T08:54:02;14.60;99.90
44447;DHT22;30152;52.066;5.358;2022-10-16T08:56:28;14.60;99.90
44447;DHT22;30152;52.066;5.358;2022-10-16T08:58:54;14.60;99.90
44447;DHT22;30152;52.066;5.358;2022-10-16T09:01:22;14.70;99.90
44447;DHT22;30152;52.066;5.358;2022-10-16T09:06:43;14.80;99.90
44447;DHT22;30152;52.066;5.358;2022-10-16T09:11:55;14.80;99.90
44447;DHT22;30152;52.066;5.358;2022-10-16T09:14:40;15.00;99.90
44447;DHT22;30152;52.066;5.358;2022-10-16T09:22:45;15.00;99.90
44447;DHT22;30152;52.066;5.358;2022-10-16T09:25:13;15.10;99.90
44447;DHT22;30152;52.066;5.358;2022-10-16T09:30:13;15.30;99.90
44447;DHT22;30152;52.066;5.358;2022-10-16T09:32:40;15.30;99.90
44447;DHT22;30152;52.066;5.358;2022-10-16T09:35:13;15.30;99.90
44447;DHT22;30152;52.066;5.358;2022-10-16T09:37:39;15.40;99.90
44447;DHT22;30152;52.066;5.358;2022-10-16T09:40:06;15.60;99.90
44447;DHT22;30152;52.066;5.358;2022-10-16T09:42:34;15.60;99.90
44447;DHT22;30152;52.066;5.358;2022-10-16T09:45:01;15.30;99.90
44447;DHT22;30152;52.066;5.358;2022-10-16T09:47:28;15.30;99.90
44447;DHT22;30152;52.066;5.358;2022-10-16T09:49:57;15.60;99.90
44447;DHT22;30152;52.066;5.358;2022-10-16T09:52:25;16.10;99.90
44447;DHT22;30152;52.066;5.358;2022-10-16T09:55:14;16.00;99.90
44447;DHT22;30152;52.066;5.358;2022-10-16T09:57:53;15.90;99.90
44447;DHT22;30152;52.066;5.358;2022-10-16T10:00:20;15.80;99.90
44447;DHT22;30152;52.066;5.358;2022-10-16T10:02:46;15.60;99.90
44447;DHT22;30152;52.066;5.358;2022-10-16T10:05:20;15.90;99.90
44447;DHT22;30152;52.066;5.358;2022-10-16T10:08:00;15.60;99.90
44447;DHT22;30152;52.066;5.358;2022-10-16T10:10:29;15.70;99.90
44447;DHT22;30152;52.066;5.358;2022-10-16T10:12:55;15.70;99.90
44447;DHT22;30152;52.066;5.358;2022-10-16T10:15:22;15.70;99.90
44447;DHT22;30152;52.066;5.358;2022-10-16T10:17:52;15.90;99.90
44447;DHT22;30152;52.066;5.358;2022-10-16T10:20:35;16.00;99.90
44447;DHT22;30152;52.066;5.358;2022-10-16T10:23:21;16.10;99.90
44447;DHT22;30152;52.066;5.358;2022-10-16T10:31:42;16.50;99.90
44447;DHT22;30152;52.066;5.358;2022-10-16T10:40:07;16.90;99.90
44447;DHT22;30152;52.066;5.358;2022-10-16T10:42:44;16.80;99.90
44447;DHT22;30152;52.066;5.358;2022-10-16T10:45:20;17.60;99.90
44447;DHT22;30152;52.066;5.358;2022-10-16T10:50:45;16.90;99.90
44447;DHT22;30152;52.066;5.358;2022-10-16T11:01:21;17.20;99.90
44447;DHT22;30152;52.066;5.358;2022-10-16T11:09:30;16.70;99.90
44447;DHT22;30152;52.066;5.358;2022-10-16T11:12:23;16.80;99.90
44447;DHT22;30152;52.066;5.358;2022-10-16T11:17:41;17.20;99.90
44447;DHT22;30152;52.066;5.358;2022-10-16T11:20:22;17.10;99.90
44447;DHT22;30152;52.066;5.358;2022-10-16T11:22:56;16.90;99.90
44447;DHT22;30152;52.066;5.358;2022-10-16T11:25:33;16.60;99.90
44447;DHT22;30152;52.066;5.358;2022-10-16T11:28:19;16.60;99.90
44447;DHT22;30152;52.066;5.358;2022-10-16T11:30:49;16.40;99.90
44447;DHT22;30152;52.066;5.358;2022-10-16T11:38:46;16.30;99.90
44447;DHT22;30152;52.066;5.358;2022-10-16T11:49:31;16.20;99.90
44447;DHT22;30152;52.066;5.358;2022-10-16T11:52:08;16.30;99.90
44447;DHT22;30152;52.066;5.358;2022-10-16T11:54:49;16.50;99.90
44447;DHT22;30152;52.066;5.358;2022-10-16T11:57:24;16.70;99.90
44447;DHT22;30152;52.066;5.358;2022-10-16T12:08:46;16.50;99.90
44447;DHT22;30152;52.066;5.358;2022-10-16T12:11:31;16.80;99.90
44447;DHT22;30152;52.066;5.358;2022-10-16T12:17:03;17.30;99.90
44447;DHT22;30152;52.066;5.358;2022-10-16T12:19:31;17.30;99.90
44447;DHT22;30152;52.066;5.358;2022-10-16T12:22:02;17.30;99.90
44447;DHT22;30152;52.066;5.358;2022-10-16T12:24:39;17.40;99.90
44447;DHT22;30152;52.066;5.358;2022-10-16T12:27:24;17.30;99.90
44447;DHT22;30152;52.066;5.358;2022-10-16T12:29:57;17.30;99.90
44447;DHT22;30152;52.066;5.358;2022-10-16T12:32:35;17.20;99.90
44447;DHT22;30152;52.066;5.358;2022-10-16T12:35:03;17.30;99.90
44447;DHT22;30152;52.066;5.358;2022-10-16T12:37:36;17.40;99.90
44447;DHT22;30152;52.066;5.358;2022-10-16T12:40:16;17.40;99.90
44447;DHT22;30152;52.066;5.358;2022-10-16T12:45:34;17.50;99.90
44447;DHT22;30152;52.066;5.358;2022-10-16T12:48:18;18.50;99.90
44447;DHT22;30152;52.066;5.358;2022-10-16T12:50:45;17.40;99.90
44447;DHT22;30152;52.066;5.358;2022-10-16T12:53:20;17.60;99.90
44447;DHT22;30152;52.066;5.358;2022-10-16T13:04:31;17.70;99.90
44447;DHT22;30152;52.066;5.358;2022-10-16T13:15:16;17.60;99.90
44447;DHT22;30152;52.066;5.358;2022-10-16T13:18:19;17.50;99.90
44447;DHT22;30152;52.066;5.358;2022-10-16T13:31:22;17.60;99.90
44447;DHT22;30152;52.066;5.358;2022-10-16T13:33:54;17.60;99.90
44447;DHT22;30152;52.066;5.358;2022-10-16T13:36:26;17.40;99.90
44447;DHT22;30152;52.066;5.358;2022-10-16T13:49:04;17.30;99.90
44447;DHT22;30152;52.066;5.358;2022-10-16T13:51:31;17.20;99.90
44447;DHT22;30152;52.066;5.358;2022-10-16T13:53:58;17.10;99.90
44447;DHT22;30152;52.066;5.358;2022-10-16T13:56:28;17.10;99.90
44447;DHT22;30152;52.066;5.358;2022-10-16T13:59:22;17.00;99.90
44447;DHT22;30152;52.066;5.358;2022-10-16T14:01:48;17.20;99.90
44447;DHT22;30152;52.066;5.358;2022-10-16T14:04:14;16.90;99.90
44447;DHT22;30152;52.066;5.358;2022-10-16T14:06:43;17.00;99.90
44447;DHT22;30152;52.066;5.358;2022-10-16T14:09:25;16.90;99.90
44447;DHT22;30152;52.066;5.358;2022-10-16T14:11:58;17.00;99.90
44447;DHT22;30152;52.066;5.358;2022-10-16T14:14:27;16.50;99.90
44447;DHT22;30152;52.066;5.358;2022-10-16T14:16:56;16.90;99.90
44447;DHT22;30152;52.066;5.358;2022-10-16T14:19:25;16.60;99.90
44447;DHT22;30152;52.066;5.358;2022-10-16T14:21:52;16.60;99.90
44447;DHT22;30152;52.066;5.358;2022-10-16T14:26:56;17.80;99.90
44447;DHT22;30152;52.066;5.358;2022-10-16T14:29:23;17.00;99.90
44447;DHT22;30152;52.066;5.358;2022-10-16T14:31:56;16.90;99.90
44447;DHT22;30152;52.066;5.358;2022-10-16T14:34:34;16.90;99.90
44447;DHT22;30152;52.066;5.358;2022-10-16T14:37:05;16.60;99.90
44447;DHT22;30152;52.066;5.358;2022-10-16T14:39:32;16.60;99.90
44447;DHT22;30152;52.066;5.358;2022-10-16T14:41:58;16.80;99.90
44447;DHT22;30152;52.066;5.358;2022-10-16T14:44:31;17.00;99.90
44447;DHT22;30152;52.066;5.358;2022-10-16T14:46:57;16.50;99.90
44447;DHT22;30152;52.066;5.358;2022-10-16T14:49:25;18.00;99.90
44447;DHT22;30152;52.066;5.358;2022-10-16T14:54:19;16.80;99.90
44447;DHT22;30152;52.066;5.358;2022-10-16T14:56:56;16.60;99.90
44447;DHT22;30152;52.066;5.358;2022-10-16T15:04:22;16.80;99.90
44447;DHT22;30152;52.066;5.358;2022-10-16T15:06:48;16.60;99.90
44447;DHT22;30152;52.066;5.358;2022-10-16T15:16:32;16.90;99.90
44447;DHT22;30152;52.066;5.358;2022-10-16T15:21:32;16.40;99.90
44447;DHT22;30152;52.066;5.358;2022-10-16T15:23:59;16.20;99.90
44447;DHT22;30152;52.066;5.358;2022-10-16T15:26:26;16.30;99.90
44447;DHT22;30152;52.066;5.358;2022-10-16T15:31:18;16.80;99.90
44447;DHT22;30152;52.066;5.358;2022-10-16T15:33:44;15.90;99.90
44447;DHT22;30152;52.066;5.358;2022-10-16T15:41:05;15.80;99.90
44447;DHT22;30152;52.066;5.358;2022-10-16T15:46:00;15.80;99.90
44447;DHT22;30152;52.066;5.358;2022-10-16T16:03:03;15.60;99.90
44447;DHT22;30152;52.066;5.358;2022-10-16T16:05:29;15.20;99.90
44447;DHT22;30152;52.066;5.358;2022-10-16T16:12:48;15.10;99.90
44447;DHT22;30152;52.066;5.358;2022-10-16T16:15:20;15.20;99.90
44447;DHT22;30152;52.066;5.358;2022-10-16T16:22:37;15.40;99.90
44447;DHT22;30152;52.066;5.358;2022-10-16T16:25:03;15.00;99.90
44447;DHT22;30152;52.066;5.358;2022-10-16T16:27:29;14.50;99.90
44447;DHT22;30152;52.066;5.358;2022-10-16T16:44:35;14.80;99.90
44447;DHT22;30152;52.066;5.358;2022-10-16T16:47:03;14.70;99.90
44447;DHT22;30152;52.066;5.358;2022-10-16T16:59:15;14.50;99.90
44447;DHT22;30152;52.066;5.358;2022-10-16T17:01:43;14.40;99.90
44447;DHT22;30152;52.066;5.358;2022-10-16T17:06:36;14.30;99.90
44447;DHT22;30152;52.066;5.358;2022-10-16T17:09:04;14.00;99.90
44447;DHT22;30152;52.066;5.358;2022-10-16T17:13:57;15.00;99.90
44447;DHT22;30152;52.066;5.358;2022-10-16T17:16:26;14.40;99.90
44447;DHT22;30152;52.066;5.358;2022-10-16T17:21:19;14.70;99.90
44447;DHT22;30152;52.066;5.358;2022-10-16T17:23:44;13.90;99.90
44447;DHT22;30152;52.066;5.358;2022-10-16T17:26:16;13.70;99.90
44447;DHT22;30152;52.066;5.358;2022-10-16T17:28:42;13.90;99.90
44447;DHT22;30152;52.066;5.358;2022-10-16T17:31:13;14.20;99.90
44447;DHT22;30152;52.066;5.358;2022-10-16T17:33:39;14.00;99.90
44447;DHT22;30152;52.066;5.358;2022-10-16T17:36:06;14.30;99.90
44447;DHT22;30152;52.066;5.358;2022-10-16T17:38:33;13.40;99.90
44447;DHT22;30152;52.066;5.358;2022-10-16T17:55:39;13.90;99.90
44447;DHT22;30152;52.066;5.358;2022-10-16T18:00:31;13.80;99.90
44447;DHT22;30152;52.066;5.358;2022-10-16T18:02:57;13.60;99.90
44447;DHT22;30152;52.066;5.358;2022-10-16T18:05:23;13.40;99.90
44447;DHT22;30152;52.066;5.358;2022-10-16T18:17:35;13.60;99.90
44447;DHT22;30152;52.066;5.358;2022-10-16T18:20:04;13.60;99.90
44447;DHT22;30152;52.066;5.358;2022-10-16T18:22:32;13.80;99.90
44447;DHT22;30152;52.066;5.358;2022-10-16T18:37:13;13.20;99.90
44447;DHT22;30152;52.066;5.358;2022-10-16T18:39:40;13.10;99.90
44447;DHT22;30152;52.066;5.358;2022-10-16T18:42:06;13.70;99.90
44447;DHT22;30152;52.066;5.358;2022-10-16T18:46:58;13.90;99.90
44447;DHT22;30152;52.066;5.358;2022-10-16T18:51:51;13.60;99.90
44447;DHT22;30152;52.066;5.358;2022-10-16T18:54:21;13.60;99.90
44447;DHT22;30152;52.066;5.358;2022-10-16T19:01:38;13.30;99.90
44447;DHT22;30152;52.066;5.358;2022-10-16T19:04:06;13.40;99.90
44447;DHT22;30152;52.066;5.358;2022-10-16T19:06:34;13.40;99.90
44447;DHT22;30152;52.066;5.358;2022-10-16T19:09:00;13.70;99.90
44447;DHT22;30152;52.066;5.358;2022-10-16T19:13:52;12.90;99.90
44447;DHT22;30152;52.066;5.358;2022-10-16T19:16:23;13.40;99.90
44447;DHT22;30152;52.066;5.358;2022-10-16T19:18:53;13.50;99.90
44447;DHT22;30152;52.066;5.358;2022-10-16T19:21:20;13.50;99.90
44447;DHT22;30152;52.066;5.358;2022-10-16T19:26:14;13.50;99.90
44447;DHT22;30152;52.066;5.358;2022-10-16T19:31:08;13.40;99.90
44447;DHT22;30152;52.066;5.358;2022-10-16T19:33:38;13.00;99.90
